sensor_id;sensor_type;location;lat;lon;timestamp;P1;durP1;ratioP1;P2;durP2;ratioP2
58152;SDS011;43967;51.634;5.566;2023-05-07T00:00:30;5.20;;;1.50;;
58152;SDS011;43967;51.634;5.566;2023-05-07T00:05:52;5.32;;;1.67;;
58152;SDS011;43967;51.634;5.566;2023-05-07T00:11:13;5.20;;;1.60;;
58152;SDS011;43967;51.634;5.566;2023-05-07T00:16:35;5.57;;;1.80;;
58152;SDS011;43967;51.634;5.566;2023-05-07T00:21:56;5.78;;;1.55;;
58152;SDS011;43967;51.634;5.566;2023-05-07T00:27:17;4.68;;;1.42;;
58152;SDS011;43967;51.634;5.566;2023-05-07T00:32:39;5.47;;;1.93;;
58152;SDS011;43967;51.634;5.566;2023-05-07T00:38:00;5.25;;;1.67;;
58152;SDS011;43967;51.634;5.566;2023-05-07T00:43:21;5.18;;;1.73;;
58152;SDS011;43967;51.634;5.566;2023-05-07T00:48:42;5.77;;;1.97;;
58152;SDS011;43967;51.634;5.566;2023-05-07T00:54:04;5.50;;;1.97;;
58152;SDS011;43967;51.634;5.566;2023-05-07T00:59:25;5.70;;;2.13;;
58152;SDS011;43967;51.634;5.566;2023-05-07T01:04:46;5.38;;;1.92;;
58152;SDS011;43967;51.634;5.566;2023-05-07T01:10:08;5.93;;;1.83;;
58152;SDS011;43967;51.634;5.566;2023-05-07T01:15:30;5.35;;;1.67;;
58152;SDS011;43967;51.634;5.566;2023-05-07T01:20:52;5.40;;;1.60;;
58152;SDS011;43967;51.634;5.566;2023-05-07T01:26:13;5.77;;;2.00;;
58152;SDS011;43967;51.634;5.566;2023-05-07T01:31:34;6.18;;;1.70;;
58152;SDS011;43967;51.634;5.566;2023-05-07T01:36:57;5.25;;;1.98;;
58152;SDS011;43967;51.634;5.566;2023-05-07T01:42:20;5.53;;;2.27;;
58152;SDS011;43967;51.634;5.566;2023-05-07T01:47:42;5.90;;;1.90;;
58152;SDS011;43967;51.634;5.566;2023-05-07T01:53:04;5.60;;;1.92;;
58152;SDS011;43967;51.634;5.566;2023-05-07T01:58:25;5.82;;;2.05;;
58152;SDS011;43967;51.634;5.566;2023-05-07T02:03:46;5.80;;;1.90;;
58152;SDS011;43967;51.634;5.566;2023-05-07T02:09:08;5.53;;;1.95;;
58152;SDS011;43967;51.634;5.566;2023-05-07T02:14:29;5.40;;;1.80;;
58152;SDS011;43967;51.634;5.566;2023-05-07T02:19:50;5.50;;;2.00;;
58152;SDS011;43967;51.634;5.566;2023-05-07T02:25:12;5.50;;;2.08;;
58152;SDS011;43967;51.634;5.566;2023-05-07T02:30:33;5.43;;;1.70;;
58152;SDS011;43967;51.634;5.566;2023-05-07T02:35:54;5.90;;;1.80;;
58152;SDS011;43967;51.634;5.566;2023-05-07T02:41:16;5.70;;;2.33;;
58152;SDS011;43967;51.634;5.566;2023-05-07T02:46:37;6.28;;;2.30;;
58152;SDS011;43967;51.634;5.566;2023-05-07T02:51:58;5.70;;;2.08;;
58152;SDS011;43967;51.634;5.566;2023-05-07T02:57:19;5.50;;;1.90;;
58152;SDS011;43967;51.634;5.566;2023-05-07T03:02:41;6.07;;;2.33;;
58152;SDS011;43967;51.634;5.566;2023-05-07T03:08:02;5.97;;;2.33;;
58152;SDS011;43967;51.634;5.566;2023-05-07T03:13:23;6.73;;;2.50;;
58152;SDS011;43967;51.634;5.566;2023-05-07T03:18:45;5.50;;;2.05;;
58152;SDS011;43967;51.634;5.566;2023-05-07T03:24:06;5.90;;;2.50;;
58152;SDS011;43967;51.634;5.566;2023-05-07T03:29:27;5.67;;;2.10;;
58152;SDS011;43967;51.634;5.566;2023-05-07T03:34:49;6.03;;;2.40;;
58152;SDS011;43967;51.634;5.566;2023-05-07T03:40:10;6.18;;;2.53;;
58152;SDS011;43967;51.634;5.566;2023-05-07T03:45:31;6.20;;;2.17;;
58152;SDS011;43967;51.634;5.566;2023-05-07T03:50:53;5.60;;;1.80;;
58152;SDS011;43967;51.634;5.566;2023-05-07T03:56:14;6.40;;;2.63;;
58152;SDS011;43967;51.634;5.566;2023-05-07T04:01:35;6.22;;;2.55;;
58152;SDS011;43967;51.634;5.566;2023-05-07T04:06:57;6.67;;;2.30;;
58152;SDS011;43967;51.634;5.566;2023-05-07T04:12:18;5.75;;;1.92;;
58152;SDS011;43967;51.634;5.566;2023-05-07T04:17:39;5.90;;;2.45;;
58152;SDS011;43967;51.634;5.566;2023-05-07T04:23:00;5.93;;;2.40;;
58152;SDS011;43967;51.634;5.566;2023-05-07T04:28:22;6.90;;;2.57;;
58152;SDS011;43967;51.634;5.566;2023-05-07T04:33:43;6.57;;;2.40;;
58152;SDS011;43967;51.634;5.566;2023-05-07T04:39:04;6.43;;;2.40;;
58152;SDS011;43967;51.634;5.566;2023-05-07T04:44:26;5.80;;;2.23;;
58152;SDS011;43967;51.634;5.566;2023-05-07T04:49:47;5.80;;;2.33;;
58152;SDS011;43967;51.634;5.566;2023-05-07T04:55:08;5.60;;;1.95;;
58152;SDS011;43967;51.634;5.566;2023-05-07T05:00:30;5.97;;;2.20;;
58152;SDS011;43967;51.634;5.566;2023-05-07T05:05:51;5.88;;;2.20;;
58152;SDS011;43967;51.634;5.566;2023-05-07T05:11:13;6.43;;;2.42;;
58152;SDS011;43967;51.634;5.566;2023-05-07T05:16:34;6.47;;;2.53;;
58152;SDS011;43967;51.634;5.566;2023-05-07T05:21:55;6.30;;;2.53;;
58152;SDS011;43967;51.634;5.566;2023-05-07T05:27:17;6.28;;;2.78;;
58152;SDS011;43967;51.634;5.566;2023-05-07T05:32:38;6.20;;;2.60;;
58152;SDS011;43967;51.634;5.566;2023-05-07T05:37:59;6.03;;;2.50;;
58152;SDS011;43967;51.634;5.566;2023-05-07T05:43:20;6.00;;;2.50;;
58152;SDS011;43967;51.634;5.566;2023-05-07T05:48:42;6.32;;;2.65;;
58152;SDS011;43967;51.634;5.566;2023-05-07T05:54:03;6.73;;;2.70;;
58152;SDS011;43967;51.634;5.566;2023-05-07T05:59:24;6.70;;;3.05;;
58152;SDS011;43967;51.634;5.566;2023-05-07T06:04:46;5.90;;;2.30;;
58152;SDS011;43967;51.634;5.566;2023-05-07T06:10:07;6.67;;;2.60;;
58152;SDS011;43967;51.634;5.566;2023-05-07T06:15:28;6.53;;;2.70;;
58152;SDS011;43967;51.634;5.566;2023-05-07T06:20:51;5.90;;;2.50;;
58152;SDS011;43967;51.634;5.566;2023-05-07T06:26:12;6.45;;;2.45;;
58152;SDS011;43967;51.634;5.566;2023-05-07T06:31:34;6.43;;;2.67;;
58152;SDS011;43967;51.634;5.566;2023-05-07T06:36:55;6.80;;;2.95;;
58152;SDS011;43967;51.634;5.566;2023-05-07T06:42:16;6.30;;;2.80;;
58152;SDS011;43967;51.634;5.566;2023-05-07T06:47:37;6.20;;;2.60;;
58152;SDS011;43967;51.634;5.566;2023-05-07T06:52:59;6.95;;;2.72;;
58152;SDS011;43967;51.634;5.566;2023-05-07T06:58:20;7.45;;;3.00;;
58152;SDS011;43967;51.634;5.566;2023-05-07T07:03:41;6.60;;;2.67;;
58152;SDS011;43967;51.634;5.566;2023-05-07T07:09:02;6.87;;;3.20;;
58152;SDS011;43967;51.634;5.566;2023-05-07T07:14:24;7.03;;;3.33;;
58152;SDS011;43967;51.634;5.566;2023-05-07T07:19:45;6.70;;;3.10;;
58152;SDS011;43967;51.634;5.566;2023-05-07T07:25:06;6.53;;;2.80;;
58152;SDS011;43967;51.634;5.566;2023-05-07T07:30:43;6.45;;;2.50;;
58152;SDS011;43967;51.634;5.566;2023-05-07T07:36:16;6.30;;;2.78;;
58152;SDS011;43967;51.634;5.566;2023-05-07T07:41:38;10.47;;;2.57;;
58152;SDS011;43967;51.634;5.566;2023-05-07T07:46:59;7.65;;;2.90;;
58152;SDS011;43967;51.634;5.566;2023-05-07T07:52:20;6.93;;;2.78;;
58152;SDS011;43967;51.634;5.566;2023-05-07T07:57:41;8.37;;;2.97;;
58152;SDS011;43967;51.634;5.566;2023-05-07T08:03:03;8.27;;;3.13;;
58152;SDS011;43967;51.634;5.566;2023-05-07T08:08:24;7.25;;;2.50;;
58152;SDS011;43967;51.634;5.566;2023-05-07T08:13:45;6.60;;;2.40;;
58152;SDS011;43967;51.634;5.566;2023-05-07T08:19:07;6.70;;;2.50;;
58152;SDS011;43967;51.634;5.566;2023-05-07T08:24:28;6.68;;;2.67;;
58152;SDS011;43967;51.634;5.566;2023-05-07T08:29:49;6.35;;;2.00;;
58152;SDS011;43967;51.634;5.566;2023-05-07T08:35:11;7.43;;;2.53;;
58152;SDS011;43967;51.634;5.566;2023-05-07T08:40:34;6.57;;;2.33;;
58152;SDS011;43967;51.634;5.566;2023-05-07T08:45:58;6.60;;;2.15;;
58152;SDS011;43967;51.634;5.566;2023-05-07T08:51:22;6.07;;;2.47;;
58152;SDS011;43967;51.634;5.566;2023-05-07T08:56:43;6.30;;;2.50;;
58152;SDS011;43967;51.634;5.566;2023-05-07T09:02:05;7.03;;;2.42;;
58152;SDS011;43967;51.634;5.566;2023-05-07T09:07:28;6.82;;;2.38;;
58152;SDS011;43967;51.634;5.566;2023-05-07T09:12:51;7.30;;;2.73;;
58152;SDS011;43967;51.634;5.566;2023-05-07T09:18:12;6.50;;;2.22;;
58152;SDS011;43967;51.634;5.566;2023-05-07T09:23:34;7.75;;;2.85;;
58152;SDS011;43967;51.634;5.566;2023-05-07T09:28:55;6.57;;;3.13;;
58152;SDS011;43967;51.634;5.566;2023-05-07T09:34:16;7.32;;;3.10;;
58152;SDS011;43967;51.634;5.566;2023-05-07T09:39:38;7.65;;;4.18;;
58152;SDS011;43967;51.634;5.566;2023-05-07T09:45:04;9.23;;;4.20;;
58152;SDS011;43967;51.634;5.566;2023-05-07T09:50:30;9.73;;;4.23;;
58152;SDS011;43967;51.634;5.566;2023-05-07T09:55:56;9.77;;;4.80;;
58152;SDS011;43967;51.634;5.566;2023-05-07T10:01:18;9.88;;;5.05;;
58152;SDS011;43967;51.634;5.566;2023-05-07T10:06:41;8.93;;;4.50;;
58152;SDS011;43967;51.634;5.566;2023-05-07T10:12:04;9.85;;;5.00;;
58152;SDS011;43967;51.634;5.566;2023-05-07T10:17:27;11.82;;;5.00;;
58152;SDS011;43967;51.634;5.566;2023-05-07T10:22:48;10.10;;;4.80;;
58152;SDS011;43967;51.634;5.566;2023-05-07T10:28:11;10.98;;;5.13;;
58152;SDS011;43967;51.634;5.566;2023-05-07T10:33:33;16.40;;;5.25;;
58152;SDS011;43967;51.634;5.566;2023-05-07T10:38:56;9.97;;;4.80;;
58152;SDS011;43967;51.634;5.566;2023-05-07T10:44:24;11.80;;;5.30;;
58152;SDS011;43967;51.634;5.566;2023-05-07T11:06:14;11.60;;;6.63;;
58152;SDS011;43967;51.634;5.566;2023-05-07T11:17:11;11.00;;;6.13;;
58152;SDS011;43967;51.634;5.566;2023-05-07T11:27:54;11.55;;;6.18;;
58152;SDS011;43967;51.634;5.566;2023-05-07T11:33:17;12.60;;;6.23;;
58152;SDS011;43967;51.634;5.566;2023-05-07T11:38:39;11.10;;;5.70;;
58152;SDS011;43967;51.634;5.566;2023-05-07T11:44:00;11.00;;;5.57;;
58152;SDS011;43967;51.634;5.566;2023-05-07T11:49:24;10.18;;;5.65;;
58152;SDS011;43967;51.634;5.566;2023-05-07T11:54:57;9.97;;;5.50;;
58152;SDS011;43967;51.634;5.566;2023-05-07T12:00:19;10.77;;;5.85;;
58152;SDS011;43967;51.634;5.566;2023-05-07T12:05:40;9.75;;;5.07;;
58152;SDS011;43967;51.634;5.566;2023-05-07T12:11:01;12.33;;;4.83;;
58152;SDS011;43967;51.634;5.566;2023-05-07T12:16:23;9.85;;;4.25;;
58152;SDS011;43967;51.634;5.566;2023-05-07T12:21:44;9.95;;;4.40;;
58152;SDS011;43967;51.634;5.566;2023-05-07T12:27:05;9.63;;;4.73;;
58152;SDS011;43967;51.634;5.566;2023-05-07T12:32:27;9.13;;;3.97;;
58152;SDS011;43967;51.634;5.566;2023-05-07T12:37:54;9.88;;;4.18;;
58152;SDS011;43967;51.634;5.566;2023-05-07T12:43:19;9.50;;;4.35;;
58152;SDS011;43967;51.634;5.566;2023-05-07T12:48:44;9.87;;;3.93;;
58152;SDS011;43967;51.634;5.566;2023-05-07T12:54:06;9.63;;;4.05;;
58152;SDS011;43967;51.634;5.566;2023-05-07T12:59:31;9.90;;;3.78;;
58152;SDS011;43967;51.634;5.566;2023-05-07T13:04:59;7.80;;;3.60;;
58152;SDS011;43967;51.634;5.566;2023-05-07T13:10:21;7.10;;;3.10;;
58152;SDS011;43967;51.634;5.566;2023-05-07T13:15:43;7.47;;;3.60;;
58152;SDS011;43967;51.634;5.566;2023-05-07T13:21:04;10.17;;;3.57;;
58152;SDS011;43967;51.634;5.566;2023-05-07T13:26:26;8.00;;;3.47;;
58152;SDS011;43967;51.634;5.566;2023-05-07T13:31:47;8.27;;;3.60;;
58152;SDS011;43967;51.634;5.566;2023-05-07T13:37:08;7.28;;;2.50;;
58152;SDS011;43967;51.634;5.566;2023-05-07T13:42:30;6.83;;;2.60;;
58152;SDS011;43967;51.634;5.566;2023-05-07T13:47:51;7.28;;;3.00;;
58152;SDS011;43967;51.634;5.566;2023-05-07T13:53:12;6.78;;;2.50;;
58152;SDS011;43967;51.634;5.566;2023-05-07T13:58:33;12.20;;;2.60;;
58152;SDS011;43967;51.634;5.566;2023-05-07T14:03:55;11.43;;;3.10;;
58152;SDS011;43967;51.634;5.566;2023-05-07T14:09:17;12.10;;;2.80;;
58152;SDS011;43967;51.634;5.566;2023-05-07T14:14:38;9.47;;;2.57;;
58152;SDS011;43967;51.634;5.566;2023-05-07T14:19:59;6.97;;;2.47;;
58152;SDS011;43967;51.634;5.566;2023-05-07T14:25:20;10.07;;;2.72;;
58152;SDS011;43967;51.634;5.566;2023-05-07T14:30:42;8.60;;;2.30;;
58152;SDS011;43967;51.634;5.566;2023-05-07T14:36:03;13.60;;;2.67;;
58152;SDS011;43967;51.634;5.566;2023-05-07T14:41:24;11.10;;;2.42;;
58152;SDS011;43967;51.634;5.566;2023-05-07T14:46:45;8.98;;;2.35;;
58152;SDS011;43967;51.634;5.566;2023-05-07T14:52:08;10.20;;;2.30;;
58152;SDS011;43967;51.634;5.566;2023-05-07T14:57:29;12.30;;;3.30;;
58152;SDS011;43967;51.634;5.566;2023-05-07T15:02:51;14.05;;;4.32;;
58152;SDS011;43967;51.634;5.566;2023-05-07T15:08:12;40.57;;;21.43;;
58152;SDS011;43967;51.634;5.566;2023-05-07T15:13:33;22.13;;;12.30;;
58152;SDS011;43967;51.634;5.566;2023-05-07T15:18:55;25.33;;;12.10;;
58152;SDS011;43967;51.634;5.566;2023-05-07T15:24:16;31.85;;;16.90;;
58152;SDS011;43967;51.634;5.566;2023-05-07T15:29:37;51.47;;;31.87;;
58152;SDS011;43967;51.634;5.566;2023-05-07T15:34:58;52.25;;;28.92;;
58152;SDS011;43967;51.634;5.566;2023-05-07T15:40:20;47.28;;;27.15;;
58152;SDS011;43967;51.634;5.566;2023-05-07T15:45:42;43.47;;;25.63;;
58152;SDS011;43967;51.634;5.566;2023-05-07T15:51:03;42.38;;;24.25;;
58152;SDS011;43967;51.634;5.566;2023-05-07T15:56:25;35.47;;;21.30;;
58152;SDS011;43967;51.634;5.566;2023-05-07T16:01:46;36.43;;;20.40;;
58152;SDS011;43967;51.634;5.566;2023-05-07T16:07:07;35.00;;;20.47;;
58152;SDS011;43967;51.634;5.566;2023-05-07T16:12:28;30.52;;;19.80;;
58152;SDS011;43967;51.634;5.566;2023-05-07T16:17:50;34.10;;;20.10;;
58152;SDS011;43967;51.634;5.566;2023-05-07T16:23:11;30.17;;;18.70;;
58152;SDS011;43967;51.634;5.566;2023-05-07T16:28:32;28.67;;;17.20;;
58152;SDS011;43967;51.634;5.566;2023-05-07T16:33:53;25.75;;;16.00;;
58152;SDS011;43967;51.634;5.566;2023-05-07T16:39:15;30.83;;;16.70;;
58152;SDS011;43967;51.634;5.566;2023-05-07T16:44:36;26.95;;;15.48;;
58152;SDS011;43967;51.634;5.566;2023-05-07T16:49:57;24.33;;;15.93;;
58152;SDS011;43967;51.634;5.566;2023-05-07T16:55:19;26.97;;;14.77;;
58152;SDS011;43967;51.634;5.566;2023-05-07T17:00:40;25.63;;;14.70;;
58152;SDS011;43967;51.634;5.566;2023-05-07T17:06:01;24.63;;;14.82;;
58152;SDS011;43967;51.634;5.566;2023-05-07T17:11:23;22.60;;;13.63;;
58152;SDS011;43967;51.634;5.566;2023-05-07T17:16:44;24.90;;;13.10;;
58152;SDS011;43967;51.634;5.566;2023-05-07T17:22:05;25.10;;;12.93;;
58152;SDS011;43967;51.634;5.566;2023-05-07T17:27:27;18.63;;;12.32;;
58152;SDS011;43967;51.634;5.566;2023-05-07T17:32:48;23.73;;;11.83;;
58152;SDS011;43967;51.634;5.566;2023-05-07T17:38:09;22.60;;;11.90;;
58152;SDS011;43967;51.634;5.566;2023-05-07T17:43:30;21.00;;;12.02;;
58152;SDS011;43967;51.634;5.566;2023-05-07T17:48:52;19.67;;;11.33;;
58152;SDS011;43967;51.634;5.566;2023-05-07T17:54:13;20.80;;;10.20;;
58152;SDS011;43967;51.634;5.566;2023-05-07T17:59:34;18.13;;;10.45;;
58152;SDS011;43967;51.634;5.566;2023-05-07T18:04:55;21.10;;;10.88;;
58152;SDS011;43967;51.634;5.566;2023-05-07T18:10:18;19.33;;;9.87;;
58152;SDS011;43967;51.634;5.566;2023-05-07T18:15:39;20.17;;;9.90;;
58152;SDS011;43967;51.634;5.566;2023-05-07T18:21:00;19.45;;;9.15;;
58152;SDS011;43967;51.634;5.566;2023-05-07T18:26:22;17.07;;;9.07;;
58152;SDS011;43967;51.634;5.566;2023-05-07T18:31:43;19.13;;;8.45;;
58152;SDS011;43967;51.634;5.566;2023-05-07T18:37:04;18.95;;;8.02;;
58152;SDS011;43967;51.634;5.566;2023-05-07T18:42:26;18.97;;;8.50;;
58152;SDS011;43967;51.634;5.566;2023-05-07T18:47:47;19.00;;;8.53;;
58152;SDS011;43967;51.634;5.566;2023-05-07T18:53:08;14.85;;;7.53;;
58152;SDS011;43967;51.634;5.566;2023-05-07T18:58:29;14.40;;;7.47;;
58152;SDS011;43967;51.634;5.566;2023-05-07T19:03:51;12.70;;;6.97;;
58152;SDS011;43967;51.634;5.566;2023-05-07T19:09:12;16.40;;;7.00;;
58152;SDS011;43967;51.634;5.566;2023-05-07T19:14:33;13.98;;;6.25;;
58152;SDS011;43967;51.634;5.566;2023-05-07T19:19:54;14.17;;;7.03;;
58152;SDS011;43967;51.634;5.566;2023-05-07T19:25:16;11.57;;;5.72;;
58152;SDS011;43967;51.634;5.566;2023-05-07T19:30:38;18.42;;;6.97;;
58152;SDS011;43967;51.634;5.566;2023-05-07T19:35:59;13.93;;;6.77;;
58152;SDS011;43967;51.634;5.566;2023-05-07T19:41:20;14.03;;;6.50;;
58152;SDS011;43967;51.634;5.566;2023-05-07T19:46:42;12.90;;;6.18;;
58152;SDS011;43967;51.634;5.566;2023-05-07T19:52:03;11.57;;;5.80;;
58152;SDS011;43967;51.634;5.566;2023-05-07T19:57:24;12.70;;;5.97;;
58152;SDS011;43967;51.634;5.566;2023-05-07T20:02:46;14.43;;;6.13;;
58152;SDS011;43967;51.634;5.566;2023-05-07T20:08:07;12.80;;;5.60;;
58152;SDS011;43967;51.634;5.566;2023-05-07T20:13:29;13.93;;;5.63;;
58152;SDS011;43967;51.634;5.566;2023-05-07T20:18:50;13.60;;;5.40;;
58152;SDS011;43967;51.634;5.566;2023-05-07T20:24:11;12.63;;;5.38;;
58152;SDS011;43967;51.634;5.566;2023-05-07T20:29:32;12.73;;;5.43;;
58152;SDS011;43967;51.634;5.566;2023-05-07T20:34:54;13.07;;;5.80;;
58152;SDS011;43967;51.634;5.566;2023-05-07T20:40:15;10.57;;;5.10;;
58152;SDS011;43967;51.634;5.566;2023-05-07T20:45:36;10.15;;;5.22;;
58152;SDS011;43967;51.634;5.566;2023-05-07T20:50:58;9.47;;;4.73;;
58152;SDS011;43967;51.634;5.566;2023-05-07T20:56:20;11.32;;;4.60;;
58152;SDS011;43967;51.634;5.566;2023-05-07T21:01:41;10.18;;;4.55;;
58152;SDS011;43967;51.634;5.566;2023-05-07T21:07:03;9.60;;;4.80;;
58152;SDS011;43967;51.634;5.566;2023-05-07T21:12:24;9.68;;;4.35;;
58152;SDS011;43967;51.634;5.566;2023-05-07T21:17:45;9.82;;;4.47;;
58152;SDS011;43967;51.634;5.566;2023-05-07T21:23:07;10.07;;;4.60;;
58152;SDS011;43967;51.634;5.566;2023-05-07T21:28:28;9.93;;;4.97;;
58152;SDS011;43967;51.634;5.566;2023-05-07T21:33:49;9.80;;;4.68;;
58152;SDS011;43967;51.634;5.566;2023-05-07T21:39:12;10.15;;;4.53;;
58152;SDS011;43967;51.634;5.566;2023-05-07T21:44:34;9.77;;;4.23;;
58152;SDS011;43967;51.634;5.566;2023-05-07T21:49:55;9.57;;;4.22;;
58152;SDS011;43967;51.634;5.566;2023-05-07T21:55:16;9.93;;;4.90;;
58152;SDS011;43967;51.634;5.566;2023-05-07T22:00:38;10.03;;;4.40;;
58152;SDS011;43967;51.634;5.566;2023-05-07T22:05:59;8.18;;;4.00;;
58152;SDS011;43967;51.634;5.566;2023-05-07T22:11:21;8.20;;;4.20;;
58152;SDS011;43967;51.634;5.566;2023-05-07T22:16:42;9.07;;;4.20;;
58152;SDS011;43967;51.634;5.566;2023-05-07T22:22:03;8.57;;;4.07;;
58152;SDS011;43967;51.634;5.566;2023-05-07T22:27:24;9.60;;;4.30;;
58152;SDS011;43967;51.634;5.566;2023-05-07T22:32:46;8.10;;;3.90;;
58152;SDS011;43967;51.634;5.566;2023-05-07T22:38:07;8.53;;;3.93;;
58152;SDS011;43967;51.634;5.566;2023-05-07T22:43:28;9.18;;;3.70;;
58152;SDS011;43967;51.634;5.566;2023-05-07T22:48:50;8.10;;;3.80;;
58152;SDS011;43967;51.634;5.566;2023-05-07T22:54:11;7.67;;;3.93;;
58152;SDS011;43967;51.634;5.566;2023-05-07T22:59:32;8.32;;;3.70;;
58152;SDS011;43967;51.634;5.566;2023-05-07T23:04:53;8.23;;;4.07;;
58152;SDS011;43967;51.634;5.566;2023-05-07T23:10:15;7.57;;;4.13;;
58152;SDS011;43967;51.634;5.566;2023-05-07T23:15:36;8.83;;;4.27;;
58152;SDS011;43967;51.634;5.566;2023-05-07T23:20:57;8.20;;;3.83;;
58152;SDS011;43967;51.634;5.566;2023-05-07T23:26:19;7.47;;;3.58;;
58152;SDS011;43967;51.634;5.566;2023-05-07T23:31:40;7.63;;;3.53;;
58152;SDS011;43967;51.634;5.566;2023-05-07T23:37:01;8.10;;;3.95;;
58152;SDS011;43967;51.634;5.566;2023-05-07T23:42:23;7.93;;;3.60;;
58152;SDS011;43967;51.634;5.566;2023-05-07T23:47:44;7.83;;;3.80;;
58152;SDS011;43967;51.634;5.566;2023-05-07T23:53:05;7.53;;;3.50;;
58152;SDS011;43967;51.634;5.566;2023-05-07T23:58:26;7.78;;;3.83;;
